Time;durP1;ratioP1;P1;durP2;ratioP2;P2;SDS_P1;SDS_P2;PMS_P1;PMS_P2;Temp;Humidity;BMP_temperature;BMP_pressure;BME280_temperature;BME280_humidity;BME280_pressure;Samples;Min_cycle;Max_cycle;Signal;HPM_P1;HPM_P2
2023/11/20 00:00:12;;;;;;;19.20;12.70;;;7.90;92.40;;;;;;5062830;28;20195;-63
2023/11/20 00:02:45;;;;;;;20.60;13.93;;;7.80;92.30;;;;;;5063883;28;20256;-63
2023/11/20 00:05:12;;;;;;;19.00;13.50;;;7.80;92.30;;;;;;5068447;28;20259;-63
2023/11/20 00:07:39;;;;;;;21.23;13.73;;;7.80;92.40;;;;;;5052701;28;20206;-63
2023/11/20 00:10:07;;;;;;;17.60;12.53;;;7.80;92.50;;;;;;5063165;28;20604;-63
2023/11/20 00:12:33;;;;;;;19.07;13.63;;;7.70;92.40;;;;;;5064071;28;20229;-63
2023/11/20 00:15:01;;;;;;;24.17;13.67;;;7.70;92.40;;;;;;5062549;28;20263;-64
2023/11/20 00:17:28;;;;;;;21.23;13.93;;;7.60;92.30;;;;;;5064175;28;20216;-64
2023/11/20 00:19:55;;;;;;;21.77;14.53;;;7.60;92.30;;;;;;5061230;28;20200;-64
2023/11/20 00:22:22;;;;;;;27.17;15.30;;;7.50;92.40;;;;;;5061090;28;20275;-64
2023/11/20 00:24:49;;;;;;;18.63;13.93;;;7.50;92.40;;;;;;5061370;28;20233;-64
2023/11/20 00:27:16;;;;;;;19.63;13.43;;;7.40;92.50;;;;;;5061881;28;20303;-64
2023/11/20 00:29:43;;;;;;;19.57;13.57;;;7.40;92.50;;;;;;5061081;28;20214;-63
2023/11/20 00:32:10;;;;;;;21.53;13.93;;;7.40;92.60;;;;;;5059770;28;20594;-63
2023/11/20 00:34:37;;;;;;;16.77;12.47;;;7.40;92.60;;;;;;5061453;28;20225;-63
2023/11/20 00:37:04;;;;;;;17.17;11.30;;;7.30;92.50;;;;;;5064458;28;20206;-64
2023/11/20 00:39:32;;;;;;;19.73;12.70;;;7.30;92.60;;;;;;5063185;28;20209;-64
2023/11/20 00:41:59;;;;;;;17.27;12.87;;;7.30;92.70;;;;;;5064508;28;20265;-64
2023/11/20 00:44:26;;;;;;;26.93;12.20;;;7.30;92.80;;;;;;5059703;28;20209;-64
2023/11/20 00:46:54;;;;;;;17.53;13.57;;;7.30;92.80;;;;;;5045753;28;20602;-64
2023/11/20 00:49:22;;;;;;;17.00;12.57;;;7.30;92.80;;;;;;5063857;28;20281;-64
2023/11/20 00:51:49;;;;;;;20.07;13.97;;;7.30;92.80;;;;;;5044735;28;20216;-63
2023/11/20 00:54:16;;;;;;;19.50;12.90;;;7.30;92.80;;;;;;5068252;28;20285;-63
2023/11/20 00:56:43;;;;;;;17.87;12.83;;;7.30;92.80;;;;;;5049530;28;20228;-63
2023/11/20 00:59:11;;;;;;;21.63;13.47;;;7.30;92.80;;;;;;5062835;28;20213;-63
2023/11/20 01:01:38;;;;;;;15.97;12.03;;;7.20;92.90;;;;;;5060982;28;20690;-64
2023/11/20 01:04:05;;;;;;;20.20;14.33;;;7.20;92.90;;;;;;5054761;28;20688;-64
2023/11/20 01:06:38;;;;;;;19.93;13.20;;;7.20;92.90;;;;;;5053683;28;20240;-64
2023/11/20 01:09:06;;;;;;;17.47;12.40;;;7.20;93.00;;;;;;5050227;28;20678;-63
2023/11/20 01:11:34;;;;;;;17.93;13.60;;;7.20;92.90;;;;;;5063541;28;20198;-63
2023/11/20 01:14:04;;;;;;;19.03;13.50;;;7.10;92.70;;;;;;5066824;28;20241;-63
2023/11/20 01:16:31;;;;;;;20.80;15.27;;;7.10;92.70;;;;;;5062691;28;20198;-63
2023/11/20 01:18:59;;;;;;;19.87;14.30;;;7.00;92.80;;;;;;5051549;28;20259;-64
2023/11/20 01:21:26;;;;;;;23.00;14.93;;;7.10;92.90;;;;;;5062164;28;20198;-64
2023/11/20 01:23:53;;;;;;;19.63;13.60;;;7.00;93.00;;;;;;5053751;28;20214;-64
2023/11/20 01:26:20;;;;;;;20.50;13.23;;;7.10;93.10;;;;;;5053797;28;20198;-64
2023/11/20 01:28:48;;;;;;;20.27;14.13;;;7.10;93.10;;;;;;5041622;28;20211;-64
2023/11/20 01:31:15;;;;;;;21.10;15.77;;;7.00;93.10;;;;;;5056304;28;20713;-64
2023/11/20 01:33:42;;;;;;;19.83;13.83;;;7.00;93.20;;;;;;5067577;28;20197;-64
2023/11/20 01:36:15;;;;;;;17.33;13.00;;;7.00;93.10;;;;;;5062385;28;20213;-64
2023/11/20 01:38:42;;;;;;;17.83;13.93;;;7.00;93.20;;;;;;5060784;28;20205;-64
2023/11/20 01:41:09;;;;;;;18.70;13.07;;;7.00;93.20;;;;;;5062597;28;20198;-64
2023/11/20 01:43:36;;;;;;;17.70;13.20;;;6.90;93.20;;;;;;5067462;28;20223;-63
2023/11/20 01:46:08;;;;;;;15.80;11.30;;;6.90;93.30;;;;;;5062548;28;20288;-63
2023/11/20 01:48:36;;;;;;;19.40;12.07;;;6.90;93.30;;;;;;5062567;28;20237;-63
2023/11/20 01:51:04;;;;;;;15.70;12.40;;;6.90;93.20;;;;;;5054516;28;20631;-64
2023/11/20 01:53:32;;;;;;;18.60;13.23;;;6.90;93.20;;;;;;5060364;28;20203;-64
2023/11/20 01:56:00;;;;;;;16.30;12.03;;;6.90;93.20;;;;;;5063681;28;20222;-64
2023/11/20 01:58:27;;;;;;;21.83;14.37;;;6.80;93.20;;;;;;5064281;28;20198;-64
2023/11/20 02:00:54;;;;;;;20.63;13.20;;;6.80;93.30;;;;;;5044310;28;20206;-63
2023/11/20 02:03:22;;;;;;;16.00;12.07;;;6.80;93.20;;;;;;5045921;28;20527;-64
2023/11/20 02:05:49;;;;;;;19.83;13.67;;;6.80;93.20;;;;;;5053375;28;20207;-64
2023/11/20 02:08:17;;;;;;;21.13;14.23;;;6.80;93.20;;;;;;5065374;28;20225;-64
2023/11/20 02:10:44;;;;;;;16.97;13.13;;;6.70;93.30;;;;;;5051446;28;20197;-64
2023/11/20 02:13:11;;;;;;;17.93;13.60;;;6.70;93.40;;;;;;5063700;28;20190;-64
2023/11/20 02:15:39;;;;;;;15.97;13.20;;;6.70;93.50;;;;;;5052842;28;20202;-64
2023/11/20 02:18:35;;;;;;;18.63;14.00;;;6.70;93.60;;;;;;5048051;28;20268;-63
2023/11/20 02:21:04;;;;;;;14.50;11.43;;;6.70;93.70;;;;;;5061277;28;20262;-64
2023/11/20 02:23:32;;;;;;;18.57;13.03;;;6.70;93.70;;;;;;5062563;28;20280;-64
2023/11/20 02:25:59;;;;;;;20.17;12.97;;;6.70;93.70;;;;;;5062871;28;20214;-64
2023/11/20 02:28:33;;;;;;;20.40;12.83;;;6.70;93.60;;;;;;5059993;28;20219;-64
2023/11/20 02:31:00;;;;;;;19.63;13.40;;;6.70;93.70;;;;;;5054160;28;20198;-64
2023/11/20 02:33:27;;;;;;;16.70;12.53;;;6.70;93.60;;;;;;5070991;28;20259;-64
2023/11/20 02:35:54;;;;;;;19.10;12.67;;;6.70;93.70;;;;;;5066595;28;20267;-64
2023/11/20 02:38:22;;;;;;;17.50;12.93;;;6.60;93.70;;;;;;5068338;28;20199;-64
2023/11/20 02:40:49;;;;;;;17.57;13.10;;;6.70;93.70;;;;;;5062634;28;20222;-64
2023/11/20 02:43:16;;;;;;;16.60;11.93;;;6.60;93.70;;;;;;5059396;28;20273;-63
2023/11/20 02:45:43;;;;;;;17.57;12.90;;;6.70;93.70;;;;;;5071820;28;20205;-63
2023/11/20 02:48:10;;;;;;;17.23;12.03;;;6.70;93.70;;;;;;5052761;28;20770;-63
2023/11/20 02:50:37;;;;;;;14.37;11.17;;;6.60;93.70;;;;;;5070073;28;20201;-63
2023/11/20 02:53:05;;;;;;;18.00;12.47;;;6.60;93.70;;;;;;5063378;28;20237;-64
2023/11/20 02:55:32;;;;;;;20.80;12.30;;;6.60;93.70;;;;;;5057366;28;20296;-64
2023/11/20 02:58:01;;;;;;;19.97;12.27;;;6.60;93.70;;;;;;5070335;28;20644;-64
2023/11/20 03:00:28;;;;;;;16.43;12.67;;;6.60;93.70;;;;;;5064362;28;20202;-64
2023/11/20 03:02:55;;;;;;;16.83;12.37;;;6.60;93.80;;;;;;5068123;28;20198;-64
2023/11/20 03:05:22;;;;;;;17.00;11.73;;;6.50;93.80;;;;;;5059186;28;20676;-64
2023/11/20 03:07:49;;;;;;;15.00;11.90;;;6.50;93.90;;;;;;5065665;28;20226;-63
2023/11/20 03:10:17;;;;;;;17.70;13.33;;;6.60;94.20;;;;;;5055726;28;20209;-63
2023/11/20 03:12:44;;;;;;;17.53;12.47;;;6.60;94.00;;;;;;5054745;28;20202;-64
2023/11/20 03:15:11;;;;;;;16.20;12.00;;;6.50;94.00;;;;;;5068476;28;20594;-64
2023/11/20 03:17:38;;;;;;;17.23;12.13;;;6.50;94.00;;;;;;5063899;28;20199;-64
2023/11/20 03:20:06;;;;;;;14.77;10.70;;;6.60;94.10;;;;;;5063597;28;20198;-63
2023/11/20 03:22:33;;;;;;;15.00;11.77;;;6.50;94.30;;;;;;5066869;28;20215;-63
2023/11/20 03:25:00;;;;;;;16.73;11.80;;;6.50;93.90;;;;;;5066826;28;20197;-64
2023/11/20 03:27:27;;;;;;;16.80;11.77;;;6.50;93.90;;;;;;5066749;28;20225;-64
2023/11/20 03:29:55;;;;;;;16.47;13.27;;;6.50;94.00;;;;;;5064020;28;20197;-64
2023/11/20 03:32:22;;;;;;;17.87;11.83;;;6.50;94.00;;;;;;5064432;28;20203;-64
2023/11/20 03:34:49;;;;;;;17.13;12.27;;;6.50;94.00;;;;;;5056126;28;20284;-64
2023/11/20 03:37:16;;;;;;;13.33;10.87;;;6.50;94.00;;;;;;5056103;28;20236;-64
2023/11/20 03:39:43;;;;;;;14.63;12.63;;;6.50;93.90;;;;;;5066803;28;20592;-64
2023/11/20 03:42:10;;;;;;;21.17;12.73;;;6.50;93.90;;;;;;5066372;28;20205;-64
2023/11/20 03:44:37;;;;;;;13.57;11.37;;;6.50;94.00;;;;;;5053969;28;20229;-64
2023/11/20 03:47:04;;;;;;;22.37;13.67;;;6.50;94.00;;;;;;5063811;28;20213;-64
2023/11/20 03:49:32;;;;;;;12.93;11.43;;;6.40;94.00;;;;;;5063196;28;20287;-64
2023/11/20 03:51:59;;;;;;;16.90;11.70;;;6.40;94.00;;;;;;5048137;28;20259;-64
2023/11/20 03:54:26;;;;;;;16.97;12.70;;;6.40;94.00;;;;;;5059842;28;20631;-64
2023/11/20 03:56:53;;;;;;;15.30;11.50;;;6.40;94.00;;;;;;5039071;28;20217;-64
2023/11/20 03:59:21;;;;;;;17.07;11.70;;;6.40;94.00;;;;;;5052882;28;20233;-64
2023/11/20 04:01:49;;;;;;;15.33;11.30;;;6.40;94.00;;;;;;5065242;28;20194;-63
2023/11/20 04:04:16;;;;;;;17.23;12.33;;;6.40;93.80;;;;;;5064223;28;20240;-63
2023/11/20 04:06:43;;;;;;;16.80;12.20;;;6.40;93.70;;;;;;5059993;28;20235;-63
2023/11/20 04:09:11;;;;;;;17.13;12.43;;;6.40;93.80;;;;;;5053767;28;20234;-63
2023/11/20 04:11:39;;;;;;;16.60;12.60;;;6.40;94.00;;;;;;5055996;28;20212;-63
2023/11/20 04:14:06;;;;;;;15.80;11.77;;;6.40;94.00;;;;;;5064556;28;20191;-64
2023/11/20 04:16:34;;;;;;;21.03;13.07;;;6.40;94.10;;;;;;5068633;28;20205;-64
2023/11/20 04:19:02;;;;;;;20.20;12.23;;;6.40;94.10;;;;;;5043865;28;20297;-64
2023/11/20 04:21:31;;;;;;;16.57;11.90;;;6.40;94.10;;;;;;5040148;28;20210;-64
2023/11/20 04:23:58;;;;;;;13.87;11.57;;;6.50;94.10;;;;;;5046262;28;20516;-64
2023/11/20 04:26:25;;;;;;;15.47;12.30;;;6.40;94.10;;;;;;5064357;28;20288;-64
2023/11/20 04:28:52;;;;;;;18.27;10.93;;;6.50;94.10;;;;;;5069128;28;20535;-63
2023/11/20 04:31:19;;;;;;;13.60;11.27;;;6.40;94.10;;;;;;5061539;28;20969;-63
2023/11/20 04:33:47;;;;;;;14.63;11.67;;;6.50;94.10;;;;;;5066081;28;20238;-63
2023/11/20 04:36:13;;;;;;;17.97;12.40;;;6.50;94.10;;;;;;5068231;28;20221;-64
2023/11/20 04:38:40;;;;;;;14.30;10.30;;;6.40;94.00;;;;;;5066226;28;20204;-64
2023/11/20 04:41:08;;;;;;;16.97;11.30;;;6.40;94.00;;;;;;5063851;28;20599;-64
2023/11/20 04:43:35;;;;;;;16.70;11.70;;;6.30;93.90;;;;;;5057994;28;20205;-64
2023/11/20 04:46:02;;;;;;;14.50;11.77;;;6.30;93.90;;;;;;5061631;28;20302;-64
2023/11/20 04:48:29;;;;;;;15.20;11.60;;;6.30;93.90;;;;;;5064766;28;20219;-64
2023/11/20 04:50:56;;;;;;;19.97;11.90;;;6.20;93.90;;;;;;5044338;28;20205;-64
2023/11/20 04:53:24;;;;;;;12.40;11.10;;;6.20;93.90;;;;;;5064398;28;20203;-64
2023/11/20 04:55:52;;;;;;;13.43;11.77;;;6.10;93.90;;;;;;5056566;28;20205;-64
2023/11/20 04:58:21;;;;;;;15.97;10.80;;;6.10;93.90;;;;;;5060018;28;20198;-64
2023/11/20 05:00:50;;;;;;;15.40;10.97;;;6.00;93.90;;;;;;5065645;28;20615;-64
2023/11/20 05:03:17;;;;;;;14.77;11.23;;;6.00;94.00;;;;;;5062091;28;20647;-64
2023/11/20 05:05:45;;;;;;;13.67;10.87;;;6.00;94.00;;;;;;5065088;28;20662;-64
2023/11/20 05:08:12;;;;;;;15.73;10.57;;;6.00;94.00;;;;;;5063938;28;20224;-63
2023/11/20 05:10:39;;;;;;;17.90;11.80;;;6.00;94.10;;;;;;5054204;28;20202;-63
2023/11/20 05:13:06;;;;;;;14.73;11.30;;;6.00;94.10;;;;;;5063946;28;21037;-64
2023/11/20 05:15:33;;;;;;;14.67;11.60;;;6.00;94.10;;;;;;5070560;28;20201;-64
2023/11/20 05:18:00;;;;;;;16.60;11.13;;;6.00;94.10;;;;;;5064532;28;20193;-64
2023/11/20 05:20:27;;;;;;;15.67;10.77;;;6.00;94.10;;;;;;5059618;28;20206;-64
2023/11/20 05:22:54;;;;;;;13.70;10.87;;;6.00;94.10;;;;;;5063858;28;20206;-64
2023/11/20 05:25:21;;;;;;;17.60;10.63;;;6.00;94.10;;;;;;5047077;28;20210;-64
2023/11/20 05:27:48;;;;;;;14.80;11.00;;;5.90;94.10;;;;;;5063450;28;20194;-64
2023/11/20 05:30:15;;;;;;;14.23;11.10;;;5.90;94.10;;;;;;5063209;28;20205;-64
2023/11/20 05:32:42;;;;;;;13.13;10.47;;;5.90;94.10;;;;;;5060856;28;20288;-64
2023/11/20 05:35:09;;;;;;;17.00;10.13;;;5.80;94.10;;;;;;5064477;28;20296;-63
2023/11/20 05:37:36;;;;;;;13.33;10.50;;;5.80;94.00;;;;;;5065773;28;20259;-63
2023/11/20 05:40:03;;;;;;;13.10;11.27;;;5.80;94.00;;;;;;5066690;28;20205;-64
2023/11/20 05:42:30;;;;;;;13.17;10.23;;;5.80;93.90;;;;;;5061646;28;20207;-64
2023/11/20 05:44:57;;;;;;;13.73;10.50;;;5.70;93.90;;;;;;5058460;28;20202;-64
2023/11/20 05:47:25;;;;;;;16.97;11.00;;;5.70;93.90;;;;;;5063131;28;20205;-64
2023/11/20 05:49:53;;;;;;;11.07;9.57;;;5.70;94.00;;;;;;5062859;28;20218;-63
2023/11/20 05:52:19;;;;;;;14.20;11.57;;;5.70;94.00;;;;;;5064663;28;20628;-63
2023/11/20 05:54:46;;;;;;;18.40;11.40;;;5.70;94.00;;;;;;5058316;28;20198;-63
2023/11/20 05:57:14;;;;;;;14.77;10.90;;;5.60;94.00;;;;;;5062307;28;20216;-64
2023/11/20 05:59:45;;;;;;;14.00;10.73;;;5.60;94.00;;;;;;5058935;28;20202;-64
2023/11/20 06:02:12;;;;;;;14.57;11.27;;;5.60;94.00;;;;;;5039463;28;20244;-64
2023/11/20 06:04:39;;;;;;;13.77;11.13;;;5.60;94.10;;;;;;5066186;28;20554;-64
2023/11/20 06:07:07;;;;;;;16.53;11.70;;;5.50;94.20;;;;;;5071562;28;20215;-64
2023/11/20 06:09:34;;;;;;;15.03;10.70;;;5.50;94.20;;;;;;5065567;28;20213;-64
2023/11/20 06:12:02;;;;;;;15.60;12.03;;;5.60;94.30;;;;;;5067196;28;20528;-64
2023/11/20 06:14:29;;;;;;;15.30;12.30;;;5.50;94.30;;;;;;5068703;28;20292;-64
2023/11/20 06:16:56;;;;;;;16.10;12.00;;;5.60;94.40;;;;;;5068996;28;20190;-64
2023/11/20 06:19:27;;;;;;;15.37;11.73;;;5.50;94.40;;;;;;5062926;28;20201;-63
2023/11/20 06:21:55;;;;;;;16.97;11.80;;;5.60;94.50;;;;;;5066894;28;20202;-63
2023/11/20 06:24:22;;;;;;;15.23;11.37;;;5.60;94.50;;;;;;5068045;28;20212;-64
2023/11/20 06:26:49;;;;;;;16.17;10.57;;;5.60;94.50;;;;;;5065919;28;20205;-64
2023/11/20 06:29:16;;;;;;;15.90;10.90;;;5.60;94.50;;;;;;5067974;28;20217;-64
2023/11/20 06:31:43;;;;;;;13.93;10.83;;;5.60;94.50;;;;;;5065134;28;20194;-64
2023/11/20 06:34:10;;;;;;;18.63;12.27;;;5.60;94.50;;;;;;5067699;28;20197;-64
2023/11/20 06:36:38;;;;;;;16.83;13.33;;;5.60;94.50;;;;;;5070736;28;20197;-63
2023/11/20 06:39:06;;;;;;;19.30;13.43;;;5.70;94.50;;;;;;5049777;28;20209;-63
2023/11/20 06:41:34;;;;;;;17.83;13.70;;;5.70;94.60;;;;;;5071306;28;20476;-63
2023/11/20 06:44:01;;;;;;;16.23;12.57;;;5.70;94.60;;;;;;5065672;28;20199;-63
2023/11/20 06:46:28;;;;;;;15.90;11.60;;;5.70;94.70;;;;;;5065647;28;20562;-64
2023/11/20 06:48:56;;;;;;;18.37;11.47;;;5.80;94.70;;;;;;5069006;28;20238;-64
2023/11/20 06:51:23;;;;;;;18.83;12.33;;;5.80;94.70;;;;;;5066692;28;20192;-64
2023/11/20 06:53:51;;;;;;;17.03;13.07;;;5.80;94.70;;;;;;5068740;28;20647;-65
2023/11/20 06:56:19;;;;;;;20.67;12.47;;;5.90;94.80;;;;;;5071803;28;20195;-64
2023/11/20 06:58:46;;;;;;;16.23;12.03;;;5.90;94.80;;;;;;5045994;28;20697;-64
2023/11/20 07:01:14;;;;;;;19.97;12.73;;;5.90;94.80;;;;;;5049334;28;20296;-64
2023/11/20 07:03:44;;;;;;;18.53;12.87;;;6.00;95.10;;;;;;5053193;28;20675;-64
2023/11/20 07:06:16;;;;;;;23.20;13.30;;;6.00;94.90;;;;;;5068006;28;20205;-64
2023/11/20 07:08:46;;;;;;;19.00;11.87;;;6.10;94.90;;;;;;5064899;28;20229;-64
2023/11/20 07:11:14;;;;;;;20.77;13.70;;;6.10;94.90;;;;;;5065666;28;20197;-64
2023/11/20 07:13:41;;;;;;;16.73;12.10;;;6.20;94.90;;;;;;5065887;28;20194;-64
2023/11/20 07:16:09;;;;;;;23.93;12.77;;;6.20;95.20;;;;;;5065492;28;20271;-63
2023/11/20 07:18:36;;;;;;;21.77;14.33;;;6.30;94.90;;;;;;5062137;28;20205;-63
2023/11/20 07:21:03;;;;;;;21.63;13.70;;;6.30;94.80;;;;;;5063260;28;20287;-63
2023/11/20 07:23:30;;;;;;;22.17;13.33;;;6.30;94.80;;;;;;5064248;28;20195;-63
2023/11/20 07:25:57;;;;;;;21.17;13.60;;;6.30;94.80;;;;;;5064088;28;20230;-64
2023/11/20 07:28:24;;;;;;;16.43;12.67;;;6.40;95.00;;;;;;5064134;28;20206;-64
2023/11/20 07:30:51;;;;;;;16.60;12.77;;;6.50;95.00;;;;;;5069895;28;20192;-64
2023/11/20 07:33:18;;;;;;;17.27;12.33;;;6.50;95.00;;;;;;5039897;28;20202;-63
2023/11/20 07:35:45;;;;;;;17.53;12.30;;;6.60;95.00;;;;;;5065440;28;20202;-63
2023/11/20 07:38:12;;;;;;;18.53;12.87;;;6.60;95.10;;;;;;5064391;28;20202;-63
2023/11/20 07:40:39;;;;;;;17.50;13.13;;;6.70;95.20;;;;;;5065482;28;20194;-63
2023/11/20 07:43:06;;;;;;;17.80;14.13;;;6.80;95.20;;;;;;5061452;28;20221;-63
2023/11/20 07:45:34;;;;;;;21.67;13.43;;;6.80;95.20;;;;;;5062208;28;20594;-63
2023/11/20 07:48:01;;;;;;;17.30;12.83;;;6.90;95.20;;;;;;5063220;28;20531;-63
2023/11/20 07:50:29;;;;;;;18.83;13.53;;;7.00;95.20;;;;;;5065006;28;20301;-63
2023/11/20 07:52:56;;;;;;;18.30;13.33;;;7.10;95.20;;;;;;5061528;28;20536;-63
2023/11/20 07:55:23;;;;;;;16.27;13.43;;;7.20;95.20;;;;;;5064921;28;20277;-63
2023/11/20 07:57:50;;;;;;;20.80;13.60;;;7.30;95.50;;;;;;5061008;28;20190;-63
2023/11/20 08:00:18;;;;;;;19.70;14.17;;;7.40;95.30;;;;;;5063290;28;20214;-63
2023/11/20 08:02:45;;;;;;;18.00;13.30;;;7.60;95.30;;;;;;5046549;28;20268;-63
2023/11/20 08:05:12;;;;;;;19.27;14.23;;;7.70;95.20;;;;;;5062009;28;20242;-63
2023/11/20 08:07:39;;;;;;;23.63;15.77;;;7.90;95.10;;;;;;5061886;28;20198;-64
2023/11/20 08:10:09;;;;;;;22.80;17.80;;;8.00;95.20;;;;;;5055358;28;20234;-64
2023/11/20 08:12:37;;;;;;;24.50;16.97;;;8.20;95.00;;;;;;5062265;28;20191;-64
2023/11/20 08:15:05;;;;;;;23.67;17.13;;;8.40;94.90;;;;;;5064207;28;20232;-64
2023/11/20 08:17:33;;;;;;;24.23;16.73;;;8.50;94.70;;;;;;5062927;28;20231;-64
2023/11/20 08:20:00;;;;;;;23.23;16.67;;;8.60;94.50;;;;;;5059116;28;20209;-63
2023/11/20 08:22:27;;;;;;;27.43;17.47;;;8.70;94.30;;;;;;5063166;28;20212;-63
2023/11/20 08:24:54;;;;;;;24.27;16.73;;;8.70;94.20;;;;;;5061614;28;20225;-63
2023/11/20 08:27:21;;;;;;;24.27;17.77;;;8.80;94.10;;;;;;5064910;28;20204;-63
2023/11/20 08:29:48;;;;;;;23.23;19.23;;;8.80;94.10;;;;;;5061875;28;20286;-63
2023/11/20 08:32:16;;;;;;;27.03;19.27;;;8.80;94.00;;;;;;5063618;28;20256;-63
2023/11/20 08:34:43;;;;;;;22.47;17.17;;;8.90;94.00;;;;;;5062820;28;20205;-63
2023/11/20 08:37:10;;;;;;;24.17;16.60;;;9.00;93.90;;;;;;5062983;28;20206;-64
2023/11/20 08:39:41;;;;;;;23.67;18.30;;;8.90;93.90;;;;;;5064217;28;20538;-64
2023/11/20 08:42:08;;;;;;;26.93;17.50;;;9.00;93.90;;;;;;5060589;28;20252;-64
2023/11/20 08:44:35;;;;;;;31.93;19.70;;;9.10;93.90;;;;;;5061741;28;20215;-64
2023/11/20 08:47:04;;;;;;;26.23;20.83;;;9.10;93.90;;;;;;5062198;28;20209;-64
2023/11/20 08:49:32;;;;;;;32.17;24.03;;;9.10;93.90;;;;;;5064250;28;20303;-64
2023/11/20 08:51:59;;;;;;;30.60;22.97;;;9.30;93.90;;;;;;5062118;28;20197;-64
2023/11/20 08:54:32;;;;;;;32.40;22.20;;;9.30;93.90;;;;;;5066253;28;20190;-64
2023/11/20 08:56:59;;;;;;;28.57;21.87;;;9.40;93.90;;;;;;5059324;28;20193;-64
2023/11/20 08:59:26;;;;;;;32.03;24.17;;;9.50;94.10;;;;;;5064665;28;20199;-64
2023/11/20 09:01:57;;;;;;;29.80;22.80;;;9.60;93.80;;;;;;5060339;28;20278;-64
2023/11/20 09:04:26;;;;;;;32.73;23.67;;;9.70;93.80;;;;;;5060358;28;20246;-64
2023/11/20 09:06:53;;;;;;;31.37;24.10;;;9.80;93.80;;;;;;5062201;28;20208;-63
2023/11/20 09:09:21;;;;;;;32.53;23.13;;;9.90;93.80;;;;;;5065486;28;20211;-64
2023/11/20 09:11:48;;;;;;;34.30;25.27;;;10.00;93.90;;;;;;5062088;28;20264;-63
2023/11/20 09:14:15;;;;;;;31.97;25.63;;;10.10;93.90;;;;;;5060620;28;20226;-64
2023/11/20 09:16:43;;;;;;;36.30;27.47;;;10.10;93.80;;;;;;5062400;28;20246;-64
2023/11/20 09:19:11;;;;;;;36.93;29.37;;;10.30;93.90;;;;;;5061630;28;20208;-64
2023/11/20 09:21:38;;;;;;;35.03;29.73;;;10.40;93.90;;;;;;5068192;28;20192;-64
2023/11/20 09:24:05;;;;;;;34.80;28.87;;;10.50;93.90;;;;;;5062950;28;20213;-64
2023/11/20 09:26:32;;;;;;;38.97;30.33;;;10.60;93.70;;;;;;5064647;28;20214;-64
2023/11/20 09:28:59;;;;;;;35.13;29.67;;;10.70;93.50;;;;;;5061079;28;20224;-64
2023/11/20 09:31:27;;;;;;;38.17;31.20;;;10.80;93.30;;;;;;5059950;28;20217;-64
2023/11/20 09:33:56;;;;;;;37.17;30.20;;;10.90;93.00;;;;;;5069691;28;20939;-63
2023/11/20 09:36:23;;;;;;;36.30;30.23;;;11.00;92.90;;;;;;5062534;28;20204;-64
2023/11/20 09:38:50;;;;;;;35.90;29.60;;;11.00;92.80;;;;;;5062081;28;20259;-64
2023/11/20 09:41:17;;;;;;;44.97;32.07;;;11.10;92.70;;;;;;5063630;28;20197;-64
2023/11/20 09:43:44;;;;;;;41.20;31.90;;;11.20;92.70;;;;;;5064086;28;20220;-63
2023/11/20 09:46:14;;;;;;;36.60;30.63;;;11.20;92.60;;;;;;5047012;28;20500;-63
2023/11/20 09:48:43;;;;;;;38.00;30.80;;;11.30;92.50;;;;;;5065721;28;20205;-63
2023/11/20 09:51:11;;;;;;;44.87;31.93;;;11.30;92.40;;;;;;5068469;28;20650;-63
2023/11/20 09:53:41;;;;;;;40.43;31.03;;;11.40;92.30;;;;;;5063346;28;20193;-63
2023/11/20 09:56:12;;;;;;;38.77;30.90;;;11.40;92.20;;;;;;5066238;28;20201;-63
2023/11/20 09:58:43;;;;;;;37.50;31.33;;;11.50;92.20;;;;;;5071200;28;20240;-63
2023/11/20 10:01:12;;;;;;;36.90;31.70;;;11.60;92.20;;;;;;5065069;28;20302;-63
2023/11/20 10:03:42;;;;;;;42.70;31.23;;;11.70;92.20;;;;;;5069396;28;20243;-63
2023/11/20 10:06:12;;;;;;;41.13;32.67;;;11.80;92.00;;;;;;5051811;28;20209;-63
2023/11/20 10:08:45;;;;;;;39.20;31.57;;;11.80;91.90;;;;;;5063200;28;20200;-63
2023/11/20 10:11:16;;;;;;;35.13;30.20;;;11.90;91.90;;;;;;5067676;28;20235;-63
2023/11/20 10:13:44;;;;;;;38.03;31.03;;;11.90;91.60;;;;;;5069313;28;20617;-63
2023/11/20 10:16:22;;;;;;;38.10;30.10;;;11.90;91.50;;;;;;5071884;28;20278;-63
2023/11/20 10:18:51;;;;;;;40.20;30.70;;;12.00;91.50;;;;;;5047337;28;20603;-63
2023/11/20 10:21:19;;;;;;;39.83;30.43;;;12.00;91.50;;;;;;5064603;28;20215;-63
2023/11/20 10:23:54;;;;;;;37.30;30.87;;;12.10;91.40;;;;;;5070168;28;20197;-64
2023/11/20 10:26:23;;;;;;;38.37;29.73;;;12.10;91.20;;;;;;5062991;28;20563;-63
2023/11/20 10:28:50;;;;;;;31.90;25.67;;;12.20;91.20;;;;;;5066868;28;20209;-63
2023/11/20 10:31:17;;;;;;;32.43;27.13;;;12.30;91.20;;;;;;5063856;28;20228;-64
2023/11/20 10:33:44;;;;;;;30.80;26.17;;;12.40;90.50;;;;;;5064681;28;20209;-64
2023/11/20 10:36:14;;;;;;;32.17;25.60;;;12.40;90.40;;;;;;5069095;28;20197;-64
2023/11/20 10:38:44;;;;;;;31.37;25.20;;;12.40;90.30;;;;;;5067816;28;20193;-64
2023/11/20 10:41:12;;;;;;;31.20;23.90;;;12.50;90.30;;;;;;5064753;28;20194;-64
2023/11/20 10:43:40;;;;;;;30.97;24.90;;;12.50;90.30;;;;;;5063720;28;20660;-64
2023/11/20 10:46:08;;;;;;;35.97;25.03;;;12.50;90.00;;;;;;5063608;28;20217;-63
2023/11/20 10:48:37;;;;;;;32.87;25.50;;;12.50;90.10;;;;;;5068950;28;20201;-64
2023/11/20 10:51:09;;;;;;;32.33;24.97;;;12.60;90.10;;;;;;5049415;28;20218;-64
2023/11/20 10:53:39;;;;;;;31.17;25.37;;;12.60;89.60;;;;;;5063268;28;20213;-64
2023/11/20 10:56:07;;;;;;;33.13;26.37;;;12.60;90.00;;;;;;5061344;28;20555;-64
2023/11/20 10:58:35;;;;;;;29.33;25.27;;;12.60;89.90;;;;;;5060800;28;20196;-64
2023/11/20 11:01:02;;;;;;;29.93;25.13;;;12.70;90.00;;;;;;5068686;28;20211;-64
2023/11/20 11:03:30;;;;;;;35.50;26.97;;;12.60;89.80;;;;;;5067247;28;20239;-63
2023/11/20 11:06:04;;;;;;;32.30;26.77;;;12.70;90.00;;;;;;5064684;28;20285;-63
2023/11/20 11:08:32;;;;;;;36.80;26.87;;;12.70;90.10;;;;;;5062814;28;20207;-63
2023/11/20 11:11:03;;;;;;;29.27;25.90;;;12.70;90.20;;;;;;5061055;28;20208;-63
2023/11/20 11:13:34;;;;;;;34.83;27.10;;;12.80;90.10;;;;;;5068498;28;20221;-63
2023/11/20 11:16:06;;;;;;;35.83;27.53;;;12.80;90.10;;;;;;5072957;28;20231;-63
2023/11/20 11:18:35;;;;;;;37.23;28.97;;;12.80;90.20;;;;;;5061896;28;20190;-63
2023/11/20 11:21:08;;;;;;;34.77;27.40;;;12.80;90.10;;;;;;5065363;28;20217;-63
2023/11/20 11:23:51;;;;;;;40.37;28.20;;;12.90;90.20;;;;;;5066570;28;20194;-63
2023/11/20 11:26:42;;;;;;;37.23;27.07;;;13.00;90.20;;;;;;5066089;28;20225;-63
2023/11/20 11:29:16;;;;;;;31.43;25.93;;;13.00;90.10;;;;;;5071129;28;20206;-64
2023/11/20 11:32:06;;;;;;;33.73;28.13;;;13.00;90.10;;;;;;5065308;28;20642;-64
2023/11/20 11:35:01;;;;;;;33.37;27.67;;;13.10;90.00;;;;;;5068611;28;20271;-64
2023/11/20 11:37:46;;;;;;;36.67;28.03;;;13.20;90.00;;;;;;5054158;28;20528;-63
2023/11/20 11:40:35;;;;;;;39.00;28.47;;;13.20;89.70;;;;;;5064562;28;20582;-63
2023/11/20 11:43:17;;;;;;;34.53;28.10;;;13.20;89.80;;;;;;5061397;28;20662;-63
2023/11/20 11:45:48;;;;;;;38.37;30.13;;;13.30;90.00;;;;;;5058608;28;20520;-63
2023/11/20 11:48:16;;;;;;;38.33;29.57;;;13.30;89.80;;;;;;5068616;28;20213;-63
2023/11/20 11:50:46;;;;;;;35.77;29.30;;;13.40;89.80;;;;;;5066638;28;20584;-63
2023/11/20 11:53:13;;;;;;;36.00;28.90;;;13.50;89.80;;;;;;5063914;28;20287;-64
2023/11/20 11:55:42;;;;;;;35.50;28.90;;;13.50;89.60;;;;;;5060209;28;20198;-64
2023/11/20 11:58:15;;;;;;;36.23;28.87;;;13.60;89.50;;;;;;5056436;28;20207;-64
2023/11/20 12:01:02;;;;;;;35.43;28.73;;;13.60;88.80;;;;;;5066393;28;20232;-64
2023/11/20 12:03:36;;;;;;;37.70;29.20;;;13.70;88.50;;;;;;5062775;28;20237;-64
2023/11/20 12:06:05;;;;;;;40.33;29.30;;;13.80;88.50;;;;;;5064084;28;20209;-63
2023/11/20 12:08:35;;;;;;;34.50;29.17;;;13.90;87.80;;;;;;5050380;28;20569;-63
2023/11/20 12:11:03;;;;;;;37.97;29.70;;;13.90;87.80;;;;;;5051457;28;20280;-63
2023/11/20 12:13:31;;;;;;;35.20;28.10;;;13.90;87.50;;;;;;5066871;28;20193;-64
2023/11/20 12:16:06;;;;;;;36.63;29.10;;;14.00;87.30;;;;;;5052570;28;20202;-64
2023/11/20 12:18:36;;;;;;;38.10;29.57;;;14.00;87.30;;;;;;5053615;28;20304;-64
2023/11/20 12:21:07;;;;;;;36.13;28.97;;;14.00;87.10;;;;;;5060707;28;20195;-64
2023/11/20 12:23:45;;;;;;;40.87;30.77;;;14.00;87.30;;;;;;5066074;28;20285;-64
2023/11/20 12:26:18;;;;;;;39.47;29.57;;;14.10;87.50;;;;;;5065898;28;20209;-64
2023/11/20 12:28:46;;;;;;;38.07;29.47;;;14.10;87.50;;;;;;5065349;28;20194;-64
2023/11/20 12:31:13;;;;;;;40.57;31.37;;;14.10;87.70;;;;;;5059540;28;20265;-64
2023/11/20 12:33:46;;;;;;;41.07;31.47;;;14.20;87.90;;;;;;5061086;28;20197;-64
2023/11/20 12:36:14;;;;;;;40.23;30.47;;;14.20;87.90;;;;;;5047969;28;20681;-64
2023/11/20 12:38:45;;;;;;;40.43;32.40;;;14.20;87.90;;;;;;5062948;28;20207;-64